Time;durP1;ratioP1;P1;durP2;ratioP2;P2;SDS_P1;SDS_P2;PMS_P1;PMS_P2;Temp;Humidity;BMP_temperature;BMP_pressure;BME280_temperature;BME280_humidity;BME280_pressure;Samples;Min_cycle;Max_cycle;Signal;HPM_P1;HPM_P2
2021/09/01 00:00:35;;;;;;;3.10;2.50;;;23.50;68.50;;;;;;5028766;28;20213;-44
2021/09/01 00:03:02;;;;;;;3.08;2.70;;;23.50;68.60;;;;;;5030766;28;20222;-46
2021/09/01 00:05:29;;;;;;;2.60;2.40;;;23.50;68.50;;;;;;5029851;28;20202;-48
2021/09/01 00:07:55;;;;;;;2.58;2.38;;;23.50;68.70;;;;;;5031037;28;20234;-49
2021/09/01 00:10:21;;;;;;;2.80;2.60;;;23.50;68.70;;;;;;5029300;28;20206;-49
2021/09/01 00:12:48;;;;;;;2.78;2.58;;;23.50;68.80;;;;;;5030756;28;20285;-46
2021/09/01 00:15:14;;;;;;;3.15;2.60;;;23.50;69.00;;;;;;5029613;28;20213;-45
2021/09/01 00:17:41;;;;;;;2.58;2.38;;;23.50;69.10;;;;;;5030001;28;20199;-46
2021/09/01 00:20:07;;;;;;;2.40;2.20;;;23.50;69.10;;;;;;5029051;28;20289;-43
2021/09/01 00:22:34;;;;;;;2.75;2.55;;;23.50;69.10;;;;;;5029403;28;20590;-47
2021/09/01 00:25:00;;;;;;;2.45;2.25;;;23.50;69.30;;;;;;5029456;28;20663;-43
2021/09/01 00:27:27;;;;;;;2.97;2.70;;;23.50;69.40;;;;;;5029775;28;20698;-44
2021/09/01 00:29:53;;;;;;;2.42;2.22;;;23.50;69.40;;;;;;5045293;23;20577;31
2021/09/01 00:32:20;;;;;;;2.55;2.35;;;23.50;69.30;;;;;;4987434;28;20591;-49
2021/09/01 00:34:46;;;;;;;2.53;2.33;;;23.50;69.60;;;;;;4971270;28;20693;-48
2021/09/01 00:37:12;;;;;;;4.32;2.72;;;23.50;69.60;;;;;;4966684;28;20610;-48
2021/09/01 00:39:39;;;;;;;2.60;2.40;;;23.50;69.80;;;;;;4970584;28;20691;-50
2021/09/01 00:42:05;;;;;;;2.47;2.28;;;23.50;69.90;;;;;;4968825;28;20234;-46
2021/09/01 00:44:32;;;;;;;2.75;2.55;;;23.40;69.90;;;;;;4972161;28;20224;-49
2021/09/01 00:46:58;;;;;;;3.35;3.00;;;23.40;69.90;;;;;;4970594;28;20234;-46
2021/09/01 00:49:25;;;;;;;4.10;3.13;;;23.50;70.10;;;;;;4971185;28;20211;-44
2021/09/01 00:51:51;;;;;;;3.15;2.78;;;23.50;70.00;;;;;;4970521;28;20207;-48
2021/09/01 00:54:17;;;;;;;3.15;2.63;;;23.50;70.20;;;;;;4972094;28;20231;-48
2021/09/01 00:56:44;;;;;;;3.03;2.83;;;23.50;70.60;;;;;;4970681;28;20200;-44
2021/09/01 00:59:11;;;;;;;3.20;2.78;;;23.50;70.60;;;;;;4970948;28;20443;-48
2021/09/01 01:01:37;;;;;;;3.25;2.72;;;23.50;70.50;;;;;;4970939;28;20625;-47
2021/09/01 01:04:04;;;;;;;2.90;2.28;;;23.50;70.60;;;;;;4971630;28;20228;-49
2021/09/01 01:06:30;;;;;;;2.55;2.35;;;23.50;70.60;;;;;;4971086;28;20200;-49
2021/09/01 01:08:57;;;;;;;3.38;2.60;;;23.50;70.70;;;;;;4960772;28;20236;-49
2021/09/01 01:11:23;;;;;;;3.65;2.65;;;23.50;71.10;;;;;;4971060;28;20207;-48
2021/09/01 01:13:50;;;;;;;2.78;2.55;;;23.50;71.50;;;;;;4973671;28;20226;-46
2021/09/01 01:16:16;;;;;;;2.80;2.42;;;23.50;72.00;;;;;;4973490;28;20197;-44
2021/09/01 01:18:45;;;;;;;2.65;2.45;;;23.50;72.20;;;;;;4973976;28;20200;-51
2021/09/01 01:21:12;;;;;;;2.55;2.35;;;23.50;71.80;;;;;;4974153;28;20204;-49
2021/09/01 01:23:38;;;;;;;2.78;2.50;;;23.50;71.80;;;;;;4968172;28;20306;-44
2021/09/01 01:26:05;;;;;;;2.63;2.42;;;23.50;72.30;;;;;;4973727;28;20666;-48
2021/09/01 01:28:31;;;;;;;2.72;2.53;;;23.50;72.80;;;;;;4974715;28;20696;-48
2021/09/01 01:30:58;;;;;;;2.40;2.20;;;23.50;73.00;;;;;;4973847;28;20665;-46
2021/09/01 01:33:24;;;;;;;2.60;2.40;;;23.50;73.20;;;;;;4975041;28;20670;-49
2021/09/01 01:35:51;;;;;;;2.97;2.08;;;23.50;74.00;;;;;;4974413;28;20525;-42
2021/09/01 01:38:17;;;;;;;2.50;2.30;;;23.50;76.10;;;;;;4973996;28;20201;-46
2021/09/01 01:40:43;;;;;;;2.97;2.20;;;23.40;82.40;;;;;;4972651;28;20209;-48
2021/09/01 01:43:10;;;;;;;2.42;2.00;;;23.50;82.00;;;;;;4972063;28;20229;-43
2021/09/01 01:45:36;;;;;;;2.92;2.63;;;23.50;80.80;;;;;;4974819;28;20292;-44
2021/09/01 01:48:03;;;;;;;2.65;2.45;;;23.50;84.10;;;;;;4974245;28;20328;-46
2021/09/01 01:50:29;;;;;;;2.42;2.22;;;23.60;74.00;;;;;;4972805;28;20211;-43
2021/09/01 01:52:56;;;;;;;4.68;2.75;;;23.50;69.90;;;;;;4974198;28;20223;-48
2021/09/01 01:55:22;;;;;;;2.60;2.40;;;23.50;69.70;;;;;;4973417;28;20215;-47
2021/09/01 01:57:49;;;;;;;2.22;2.03;;;23.50;69.30;;;;;;4974598;28;20201;-48
2021/09/01 02:00:15;;;;;;;2.47;2.28;;;23.50;69.10;;;;;;4972907;28;20196;-49
2021/09/01 02:02:41;;;;;;;2.60;2.40;;;23.50;68.90;;;;;;4972683;28;20221;-45
2021/09/01 02:05:08;;;;;;;2.45;2.25;;;23.50;68.80;;;;;;4972287;28;20203;-49
2021/09/01 02:07:34;;;;;;;2.35;2.15;;;23.50;69.10;;;;;;4972656;28;20242;-47
2021/09/01 02:10:01;;;;;;;2.55;2.25;;;23.50;69.00;;;;;;4972913;28;20223;-46
2021/09/01 02:12:29;;;;;;;2.90;2.70;;;23.50;69.10;;;;;;4972985;28;20307;-48
2021/09/01 02:14:55;;;;;;;3.40;2.60;;;23.50;69.10;;;;;;4973618;28;20204;-48
2021/09/01 02:17:22;;;;;;;2.72;2.38;;;23.50;69.20;;;;;;4973545;28;20211;-49
2021/09/01 02:19:48;;;;;;;2.75;2.38;;;23.50;69.20;;;;;;4972567;28;20211;-48
2021/09/01 02:22:15;;;;;;;2.50;2.30;;;23.50;68.90;;;;;;4973992;28;20240;-51
2021/09/01 02:24:41;;;;;;;3.63;2.78;;;23.50;69.10;;;;;;4970872;28;20201;-47
2021/09/01 02:27:07;;;;;;;2.50;2.30;;;23.50;69.00;;;;;;4972928;28;20204;-51
2021/09/01 02:29:34;;;;;;;2.58;2.30;;;23.50;69.10;;;;;;4972530;28;20193;-51
2021/09/01 02:32:00;;;;;;;2.50;2.30;;;23.50;69.10;;;;;;4973931;28;20215;-46
2021/09/01 02:34:27;;;;;;;2.35;2.15;;;23.50;69.00;;;;;;4973025;28;20211;-47
2021/09/01 02:36:53;;;;;;;2.78;2.35;;;23.50;69.00;;;;;;4972926;28;20234;-51
2021/09/01 02:39:20;;;;;;;3.15;2.30;;;23.50;69.00;;;;;;4972122;28;20218;-46
2021/09/01 02:41:46;;;;;;;2.58;2.28;;;23.50;68.90;;;;;;4974010;28;20212;-48
2021/09/01 02:44:12;;;;;;;2.38;2.17;;;23.50;68.90;;;;;;4971892;28;20783;-46
2021/09/01 02:46:39;;;;;;;2.30;2.10;;;23.50;68.90;;;;;;4972300;28;20279;-47
2021/09/01 02:49:05;;;;;;;2.65;2.45;;;23.50;68.80;;;;;;4970019;28;20644;-49
2021/09/01 02:51:32;;;;;;;2.60;2.40;;;23.50;68.70;;;;;;4973285;28;20201;-46
2021/09/01 02:53:58;;;;;;;2.40;2.20;;;23.50;68.70;;;;;;4972195;28;20228;-50
2021/09/01 02:56:25;;;;;;;2.70;2.50;;;23.50;68.70;;;;;;4973640;28;20208;-46
2021/09/01 02:58:51;;;;;;;2.42;2.22;;;23.50;68.90;;;;;;4970339;28;20735;-45
2021/09/01 03:01:18;;;;;;;2.63;2.30;;;23.50;68.90;;;;;;4973427;28;20307;-49
2021/09/01 03:03:44;;;;;;;2.28;2.17;;;23.50;68.90;;;;;;4972483;28;20258;-49
2021/09/01 03:06:11;;;;;;;2.35;2.15;;;23.50;68.90;;;;;;4973684;28;20208;-47
2021/09/01 03:08:37;;;;;;;2.60;2.40;;;23.50;68.90;;;;;;4972115;28;20238;-48
2021/09/01 03:11:03;;;;;;;2.78;2.58;;;23.50;68.90;;;;;;4972861;28;20201;-47
2021/09/01 03:13:30;;;;;;;2.58;2.35;;;23.50;68.90;;;;;;4971741;28;20224;-50
2021/09/01 03:15:56;;;;;;;2.47;2.28;;;23.50;68.90;;;;;;4972880;28;20209;-50
2021/09/01 03:18:23;;;;;;;3.20;2.40;;;23.50;68.80;;;;;;4972355;28;20231;-48
2021/09/01 03:20:49;;;;;;;2.67;2.45;;;23.50;68.80;;;;;;4972368;28;20211;-48
2021/09/01 03:23:16;;;;;;;2.60;2.40;;;23.50;68.80;;;;;;4971261;28;20319;-47
2021/09/01 03:25:42;;;;;;;2.72;2.30;;;23.50;68.90;;;;;;4962698;28;20227;-49
2021/09/01 03:28:09;;;;;;;2.47;2.28;;;23.50;68.90;;;;;;4972149;28;20242;-49
2021/09/01 03:30:35;;;;;;;2.33;2.15;;;23.50;68.90;;;;;;4971856;28;20217;-43
2021/09/01 03:33:01;;;;;;;2.42;2.22;;;23.50;68.90;;;;;;4970281;28;20307;-50
2021/09/01 03:35:28;;;;;;;2.85;2.50;;;23.50;68.90;;;;;;4972485;28;20303;-49
2021/09/01 03:37:54;;;;;;;2.47;2.28;;;23.50;69.00;;;;;;4971768;28;20222;-52
2021/09/01 03:40:21;;;;;;;2.65;2.25;;;23.50;69.10;;;;;;4970925;28;20203;-50
2021/09/01 03:42:47;;;;;;;2.50;2.30;;;23.40;69.10;;;;;;4971609;28;20220;-46
2021/09/01 03:45:14;;;;;;;2.90;2.60;;;23.50;69.20;;;;;;4971193;28;20219;-48
2021/09/01 03:47:40;;;;;;;3.22;2.83;;;23.50;69.20;;;;;;4969345;28;20330;-46
2021/09/01 03:50:06;;;;;;;2.40;2.20;;;23.50;69.20;;;;;;4971788;28;20213;-49
2021/09/01 03:52:33;;;;;;;2.50;2.30;;;23.40;69.10;;;;;;4970542;28;20295;-46
2021/09/01 03:55:01;;;;;;;2.83;2.40;;;23.50;69.10;;;;;;4971681;28;20232;-44
2021/09/01 03:57:27;;;;;;;2.42;2.22;;;23.40;68.90;;;;;;4971899;28;20196;-50
2021/09/01 03:59:54;;;;;;;2.53;2.33;;;23.50;69.10;;;;;;4970309;28;20304;-51
2021/09/01 04:02:20;;;;;;;2.20;2.00;;;23.40;69.20;;;;;;4971320;28;20232;-48
2021/09/01 04:04:47;;;;;;;3.10;2.25;;;23.50;69.40;;;;;;4971535;28;20209;-46
2021/09/01 04:07:13;;;;;;;2.50;2.30;;;23.50;69.60;;;;;;4971736;28;20200;-50
2021/09/01 04:09:40;;;;;;;2.30;2.10;;;23.50;69.40;;;;;;4969980;28;20267;-49
2021/09/01 04:12:06;;;;;;;2.65;2.25;;;23.50;69.30;;;;;;4972008;28;20253;-46
2021/09/01 04:14:33;;;;;;;2.40;2.17;;;23.50;69.30;;;;;;4971420;28;20204;-51
2021/09/01 04:16:59;;;;;;;2.33;2.13;;;23.50;69.40;;;;;;4971870;28;20203;-48
2021/09/01 04:19:26;;;;;;;2.30;2.10;;;23.50;69.40;;;;;;4970785;28;20728;-48
2021/09/01 04:21:52;;;;;;;2.53;2.10;;;23.50;69.40;;;;;;4971447;28;20260;-47
2021/09/01 04:24:19;;;;;;;2.17;2.03;;;23.50;69.30;;;;;;4971188;28;20684;-45
2021/09/01 04:26:46;;;;;;;2.65;2.17;;;23.50;69.30;;;;;;4972339;28;20585;-47
2021/09/01 04:29:12;;;;;;;2.13;2.03;;;23.50;69.40;;;;;;4971302;28;20673;-48
2021/09/01 04:31:38;;;;;;;2.45;2.33;;;23.50;69.40;;;;;;4956340;28;20700;-46
2021/09/01 04:34:05;;;;;;;4.78;2.30;;;23.50;69.40;;;;;;4970675;28;20692;-45
2021/09/01 04:36:31;;;;;;;2.72;2.13;;;23.40;69.10;;;;;;4971889;28;20206;-46
2021/09/01 04:38:58;;;;;;;2.10;2.00;;;23.50;69.20;;;;;;4970763;28;20200;-43
2021/09/01 04:41:24;;;;;;;2.72;2.53;;;23.50;69.10;;;;;;4971691;28;20236;-46
2021/09/01 04:43:51;;;;;;;2.33;2.13;;;23.50;69.20;;;;;;4970968;28;20379;-48
2021/09/01 04:46:17;;;;;;;2.78;2.47;;;23.40;69.20;;;;;;4971985;28;20197;-46
2021/09/01 04:48:44;;;;;;;2.30;2.10;;;23.40;69.20;;;;;;4974765;28;20228;-48
2021/09/01 04:51:10;;;;;;;2.15;1.95;;;23.50;69.30;;;;;;4974207;28;20221;-45
2021/09/01 04:53:37;;;;;;;2.65;2.30;;;23.40;69.30;;;;;;4976052;28;20763;-47
2021/09/01 04:56:03;;;;;;;2.70;2.50;;;23.40;69.20;;;;;;4973975;28;20653;-49
2021/09/01 04:58:30;;;;;;;2.80;2.40;;;23.50;69.10;;;;;;4972762;28;20657;-46
2021/09/01 05:00:56;;;;;;;2.40;2.20;;;23.50;68.90;;;;;;4975019;28;20683;-50
2021/09/01 05:03:22;;;;;;;2.30;2.10;;;23.50;69.00;;;;;;4974835;28;20722;-50
2021/09/01 05:05:49;;;;;;;1.92;1.80;;;23.50;69.00;;;;;;4975758;28;20208;-46
2021/09/01 05:08:15;;;;;;;3.40;2.40;;;23.40;68.90;;;;;;4974465;28;20697;-46
2021/09/01 05:10:42;;;;;;;2.17;1.85;;;23.40;68.90;;;;;;4973251;28;20677;-48
2021/09/01 05:13:09;;;;;;;2.17;1.90;;;23.50;68.90;;;;;;4974889;28;20275;-48
2021/09/01 05:15:35;;;;;;;3.72;2.03;;;23.50;69.00;;;;;;4974680;28;20208;-47
2021/09/01 05:18:02;;;;;;;2.00;1.80;;;23.40;68.80;;;;;;4975511;28;20652;-46
2021/09/01 05:20:28;;;;;;;2.67;2.30;;;23.40;69.00;;;;;;4973950;28;20205;-51
2021/09/01 05:22:55;;;;;;;2.25;2.05;;;23.40;68.90;;;;;;4975100;28;20228;-48
2021/09/01 05:25:21;;;;;;;2.30;2.10;;;23.40;68.80;;;;;;4974784;28;20200;-45
2021/09/01 05:27:47;;;;;;;2.20;2.00;;;23.50;69.00;;;;;;4975771;28;20291;-47
2021/09/01 05:30:14;;;;;;;1.98;1.88;;;23.40;69.00;;;;;;4972290;28;20217;-44
2021/09/01 05:32:40;;;;;;;2.30;2.10;;;23.40;68.80;;;;;;4974778;28;20232;-46
2021/09/01 05:35:07;;;;;;;2.42;2.20;;;23.40;68.90;;;;;;4972992;28;20204;-48
2021/09/01 05:37:33;;;;;;;2.17;2.00;;;23.40;69.00;;;;;;4975179;28;20201;-50
2021/09/01 05:40:00;;;;;;;2.60;2.40;;;23.40;68.90;;;;;;4972973;28;20278;-47
2021/09/01 05:42:26;;;;;;;2.60;2.00;;;23.40;69.10;;;;;;4974781;28;20521;-48
2021/09/01 05:44:53;;;;;;;3.65;2.13;;;23.40;69.00;;;;;;4973226;28;20212;-42
2021/09/01 05:47:19;;;;;;;4.43;2.50;;;23.40;69.00;;;;;;4973788;28;20211;-45
2021/09/01 05:49:45;;;;;;;2.25;1.92;;;23.40;69.10;;;;;;4973649;28;20242;-45
2021/09/01 05:52:12;;;;;;;2.50;2.10;;;23.40;69.20;;;;;;4974121;28;20311;-48
2021/09/01 05:54:38;;;;;;;3.95;1.95;;;23.40;69.10;;;;;;4974597;28;20213;-49
2021/09/01 05:57:05;;;;;;;2.90;1.70;;;23.40;69.10;;;;;;4973375;28;20351;-48
2021/09/01 05:59:31;;;;;;;4.53;2.17;;;23.50;69.20;;;;;;4963448;28;20203;-46
2021/09/01 06:01:58;;;;;;;3.00;2.10;;;23.50;69.20;;;;;;4974921;28;20224;-49
2021/09/01 06:04:24;;;;;;;2.38;2.05;;;23.50;69.10;;;;;;4971312;28;20201;-44
2021/09/01 06:06:50;;;;;;;3.67;3.38;;;23.50;69.20;;;;;;4991448;28;20292;-49
2021/09/01 06:09:17;;;;;;;6.25;4.00;;;23.30;65.40;;;;;;4974861;28;20224;-46
2021/09/01 06:11:43;;;;;;;4.47;4.07;;;22.90;64.80;;;;;;4977462;28;20638;-44
2021/09/01 06:14:10;;;;;;;6.28;4.25;;;22.40;64.30;;;;;;4990035;28;20530;-43
2021/09/01 06:16:36;;;;;;;4.68;4.18;;;22.20;64.10;;;;;;4979101;28;20208;-48
2021/09/01 06:19:03;;;;;;;4.35;3.95;;;22.00;68.00;;;;;;4982347;28;20200;-49
2021/09/01 06:21:29;;;;;;;4.07;3.50;;;22.10;66.20;;;;;;4973135;28;20315;-51
2021/09/01 06:23:56;;;;;;;3.60;3.30;;;22.30;65.50;;;;;;4954501;29;20295;-42
2021/09/01 06:26:22;;;;;;;4.20;3.15;;;22.50;66.20;;;;;;4960974;28;20204;-43
2021/09/01 06:28:48;;;;;;;3.17;2.88;;;22.70;66.10;;;;;;4973357;28;20239;-50
2021/09/01 06:31:15;;;;;;;3.13;2.65;;;22.80;66.50;;;;;;4971394;28;20323;-46
2021/09/01 06:33:41;;;;;;;3.22;2.85;;;22.90;66.30;;;;;;4972605;28;20283;-51
2021/09/01 06:36:08;;;;;;;2.90;2.55;;;22.90;66.40;;;;;;4960469;28;20209;-47
2021/09/01 06:38:34;;;;;;;3.00;2.65;;;23.00;66.50;;;;;;4963932;28;20209;-49
2021/09/01 06:41:01;;;;;;;4.90;2.75;;;23.00;66.80;;;;;;4958052;28;20216;-48
2021/09/01 06:43:27;;;;;;;5.68;3.20;;;23.00;66.80;;;;;;4981911;28;20206;-48
2021/09/01 06:45:53;;;;;;;3.13;2.83;;;23.00;66.70;;;;;;4965755;28;20211;-48
2021/09/01 06:48:21;;;;;;;4.60;3.50;;;23.00;66.30;;;;;;4965251;28;20200;-46
2021/09/01 06:50:47;;;;;;;5.22;3.22;;;23.00;65.40;;;;;;4973869;28;20568;-43
2021/09/01 06:53:14;;;;;;;4.20;3.80;;;23.10;65.60;;;;;;4987807;28;20551;-47
2021/09/01 06:55:40;;;;;;;3.55;3.22;;;23.10;65.00;;;;;;4971825;28;20530;-44
2021/09/01 06:58:06;;;;;;;3.70;3.40;;;23.10;64.90;;;;;;4976086;28;20577;-44
2021/09/01 07:00:33;;;;;;;4.13;3.72;;;23.10;65.00;;;;;;4972854;28;20213;-50
2021/09/01 07:02:59;;;;;;;5.22;3.50;;;23.10;64.70;;;;;;4978184;28;20240;-43
2021/09/01 07:05:31;;;;;;;4.88;3.22;;;23.20;64.40;;;;;;4971084;28;20201;-43
2021/09/01 07:07:58;;;;;;;4.10;3.70;;;23.20;64.10;;;;;;4975880;28;20208;-48
2021/09/01 07:10:24;;;;;;;6.43;3.65;;;23.20;64.10;;;;;;4990667;28;20235;-51
2021/09/01 07:12:50;;;;;;;4.20;3.40;;;23.20;64.20;;;;;;4973633;28;20216;-43
2021/09/01 07:15:17;;;;;;;4.65;3.20;;;23.20;64.40;;;;;;4979897;28;20230;-43
2021/09/01 07:17:44;;;;;;;4.53;4.07;;;23.20;64.50;;;;;;4991543;28;20206;-47
2021/09/01 07:20:10;;;;;;;4.40;3.97;;;23.20;64.00;;;;;;4991631;28;20627;-45
2021/09/01 07:22:36;;;;;;;3.67;3.38;;;23.20;63.70;;;;;;4979248;28;20263;-47
2021/09/01 07:25:03;;;;;;;4.97;3.95;;;23.20;63.60;;;;;;4972927;28;20255;-45
2021/09/01 07:27:29;;;;;;;5.75;3.58;;;23.20;63.40;;;;;;4960981;28;20208;-48
2021/09/01 07:29:56;;;;;;;3.95;3.33;;;23.10;63.30;;;;;;4967476;28;20236;-50
2021/09/01 07:32:22;;;;;;;4.35;3.00;;;23.10;63.20;;;;;;4971898;28;20221;-49
2021/09/01 07:34:49;;;;;;;3.78;2.67;;;23.30;46.00;;;;;;4971993;28;20201;-43
2021/09/01 07:37:15;;;;;;;4.63;2.78;;;23.30;44.60;;;;;;4971586;28;20235;-47
2021/09/01 07:39:42;;;;;;;3.30;2.80;;;23.40;44.50;;;;;;4971992;28;20196;-41
2021/09/01 07:42:08;;;;;;;4.90;2.67;;;23.40;44.60;;;;;;4972718;28;20213;-40
2021/09/01 07:44:35;;;;;;;4.10;2.83;;;23.40;46.30;;;;;;4972990;28;20211;-51
2021/09/01 07:47:01;;;;;;;6.03;2.90;;;23.40;46.60;;;;;;4972137;28;20209;-50
2021/09/01 07:49:28;;;;;;;4.95;3.05;;;23.40;48.40;;;;;;4971401;28;20224;-48
2021/09/01 07:51:55;;;;;;;3.05;2.75;;;23.40;48.30;;;;;;4971846;28;20231;-49
2021/09/01 07:54:22;;;;;;;3.22;2.92;;;23.40;45.80;;;;;;4972901;28;20295;-49
2021/09/01 07:56:48;;;;;;;3.00;2.70;;;23.40;45.00;;;;;;4972578;28;20204;-52
2021/09/01 07:59:15;;;;;;;4.07;3.13;;;23.40;44.80;;;;;;4972177;28;20204;-42
2021/09/01 08:01:41;;;;;;;3.08;2.78;;;23.40;45.10;;;;;;4972024;28;20222;-48
2021/09/01 08:04:08;;;;;;;3.08;2.70;;;23.40;45.50;;;;;;4958020;28;20219;-49
2021/09/01 08:06:34;;;;;;;3.15;2.80;;;23.40;44.70;;;;;;4953123;29;20296;-49
2021/09/01 08:09:01;;;;;;;4.55;3.08;;;23.40;44.80;;;;;;4968247;28;20230;-43
2021/09/01 08:11:27;;;;;;;3.47;2.97;;;23.40;44.80;;;;;;4971863;28;20319;-43
2021/09/01 08:13:53;;;;;;;3.17;2.78;;;23.40;44.80;;;;;;4972028;28;20200;-47
2021/09/01 08:16:20;;;;;;;3.92;3.10;;;23.40;44.80;;;;;;4972122;28;20207;-40
2021/09/01 08:18:46;;;;;;;3.72;3.20;;;23.40;44.80;;;;;;4972151;28;20295;-44
2021/09/01 08:21:13;;;;;;;2.95;2.67;;;23.40;44.80;;;;;;4968785;28;20230;-38
2021/09/01 08:23:39;;;;;;;3.72;2.90;;;23.40;44.80;;;;;;4970486;28;20210;-44
2021/09/01 08:26:06;;;;;;;3.83;2.85;;;23.40;44.90;;;;;;4972286;28;20279;-40
2021/09/01 08:28:32;;;;;;;3.40;3.10;;;23.40;44.90;;;;;;4972631;28;20230;-43
2021/09/01 08:30:59;;;;;;;2.92;2.67;;;23.40;44.90;;;;;;4970351;28;20250;-41
2021/09/01 08:33:25;;;;;;;3.30;2.85;;;23.50;45.00;;;;;;4970794;28;20331;-43
2021/09/01 08:35:51;;;;;;;4.00;2.50;;;23.40;44.90;;;;;;4971847;28;20304;-41
2021/09/01 08:38:18;;;;;;;3.97;2.55;;;23.40;44.90;;;;;;4972123;28;20204;-36
2021/09/01 08:40:44;;;;;;;3.08;2.80;;;23.40;44.90;;;;;;4971487;28;20224;-47
2021/09/01 08:43:11;;;;;;;3.65;2.85;;;23.50;45.00;;;;;;4972141;28;20210;-37
2021/09/01 08:45:37;;;;;;;3.60;2.60;;;23.40;44.90;;;;;;4971279;28;20287;-39
2021/09/01 08:48:04;;;;;;;3.25;2.80;;;23.40;44.90;;;;;;4971774;28;20200;-37
2021/09/01 08:50:30;;;;;;;2.97;2.78;;;23.50;45.00;;;;;;4971500;28;20311;-47
2021/09/01 08:52:57;;;;;;;3.22;2.90;;;23.50;45.00;;;;;;4971848;28;20205;-50
2021/09/01 08:55:23;;;;;;;2.83;2.60;;;23.50;45.00;;;;;;4971388;28;20645;-37
2021/09/01 08:57:49;;;;;;;3.45;2.78;;;23.50;45.00;;;;;;4971828;28;20661;-36
2021/09/01 09:00:16;;;;;;;3.35;3.03;;;23.40;44.90;;;;;;4970992;28;20661;-41
2021/09/01 09:02:42;;;;;;;3.42;3.00;;;23.40;44.90;;;;;;4971433;28;20576;-38
2021/09/01 09:05:09;;;;;;;3.90;2.75;;;23.40;45.00;;;;;;4971664;28;20563;-37
2021/09/01 09:07:35;;;;;;;3.30;2.92;;;23.50;45.10;;;;;;4972088;28;20291;-46
2021/09/01 09:10:02;;;;;;;2.70;2.40;;;23.40;44.90;;;;;;4971463;28;20311;-45
2021/09/01 09:12:28;;;;;;;2.90;2.67;;;23.40;45.00;;;;;;4971481;28;20225;-42
2021/09/01 09:14:54;;;;;;;3.85;2.65;;;23.50;45.10;;;;;;4970932;28;20284;-37
2021/09/01 09:17:21;;;;;;;2.90;2.50;;;23.40;45.00;;;;;;4971707;28;20201;-38
2021/09/01 09:19:47;;;;;;;2.67;2.38;;;23.50;45.10;;;;;;4971584;28;20295;-37
2021/09/01 09:22:14;;;;;;;3.28;2.83;;;23.50;45.10;;;;;;4971621;28;20307;-41
2021/09/01 09:24:40;;;;;;;2.72;2.50;;;23.50;45.10;;;;;;4971545;28;20209;-38
2021/09/01 09:27:07;;;;;;;3.20;2.80;;;23.50;45.10;;;;;;4972181;28;20200;-38
2021/09/01 09:29:33;;;;;;;2.50;2.30;;;23.50;45.10;;;;;;4975058;28;20622;-46
2021/09/01 09:32:00;;;;;;;2.80;2.60;;;23.50;45.10;;;;;;4964839;28;20582;-40
2021/09/01 09:34:26;;;;;;;3.05;2.85;;;23.50;45.10;;;;;;4986050;28;20226;-39
2021/09/01 09:36:52;;;;;;;3.08;2.78;;;23.50;45.20;;;;;;4977992;28;20209;-47
2021/09/01 09:39:19;;;;;;;4.10;3.10;;;23.50;45.40;;;;;;4983772;28;20234;-47
2021/09/01 09:41:45;;;;;;;7.40;3.17;;;23.60;46.30;;;;;;4987221;28;20220;-40
2021/09/01 09:44:12;;;;;;;4.55;3.33;;;23.60;45.80;;;;;;4981599;28;20204;-46
2021/09/01 09:46:38;;;;;;;3.28;2.88;;;23.60;45.60;;;;;;4985938;28;20200;-39
2021/09/01 09:49:05;;;;;;;3.75;2.97;;;23.60;45.90;;;;;;4971228;28;20204;-41
2021/09/01 09:51:32;;;;;;;3.63;3.20;;;23.60;46.00;;;;;;4981833;28;20231;-46
2021/09/01 09:53:58;;;;;;;3.40;2.65;;;23.60;46.00;;;;;;4985096;28;20208;-38
2021/09/01 09:56:24;;;;;;;5.47;3.17;;;23.60;46.00;;;;;;4984260;28;20303;-39
2021/09/01 09:58:52;;;;;;;3.67;3.25;;;23.60;46.80;;;;;;4988696;28;20199;-45
2021/09/01 10:01:18;;;;;;;3.47;2.67;;;23.60;46.00;;;;;;4974272;28;20228;-37
2021/09/01 10:03:44;;;;;;;10.30;3.58;;;23.60;45.90;;;;;;4977364;28;20203;-44
2021/09/01 10:06:13;;;;;;;4.88;3.47;;;23.60;45.30;;;;;;4978122;28;20203;-37
2021/09/01 10:08:40;;;;;;;5.65;3.55;;;23.60;44.70;;;;;;4984245;28;20213;-43
2021/09/01 10:11:07;;;;;;;6.50;3.80;;;23.50;45.00;;;;;;4975940;28;20630;-47
2021/09/01 10:13:33;;;;;;;4.63;3.80;;;23.50;44.40;;;;;;4961490;28;20205;-44
2021/09/01 10:16:00;;;;;;;4.38;3.83;;;23.50;43.30;;;;;;4972505;28;20205;-45
2021/09/01 10:18:26;;;;;;;4.68;4.15;;;23.40;43.00;;;;;;4971623;28;20599;-43
2021/09/01 10:20:53;;;;;;;4.22;3.60;;;23.40;42.80;;;;;;4965157;28;20597;-44
2021/09/01 10:23:19;;;;;;;5.03;3.95;;;23.40;42.60;;;;;;4967308;28;20577;-44
2021/09/01 10:25:49;;;;;;;6.57;4.30;;;23.40;41.90;;;;;;4966344;28;20570;-41
2021/09/01 10:28:15;;;;;;;5.90;4.10;;;23.40;41.20;;;;;;4965401;28;20213;-41
2021/09/01 10:30:42;;;;;;;6.38;4.53;;;23.30;40.50;;;;;;4973095;28;20600;-43
2021/09/01 10:33:08;;;;;;;4.47;3.63;;;23.30;41.20;;;;;;4973759;28;20571;-42
2021/09/01 10:35:36;;;;;;;4.47;3.97;;;23.40;40.70;;;;;;4985160;28;20230;-41
2021/09/01 10:38:06;;;;;;;4.35;3.50;;;23.30;40.50;;;;;;4979042;28;20656;-42
2021/09/01 10:40:33;;;;;;;4.93;3.63;;;23.30;40.90;;;;;;4974688;28;20224;-42
2021/09/01 10:43:00;;;;;;;5.10;3.63;;;23.40;41.10;;;;;;4986639;28;20323;-40
2021/09/01 10:45:26;;;;;;;4.38;3.97;;;23.40;41.00;;;;;;4986530;28;20258;-43
2021/09/01 10:47:53;;;;;;;3.50;3.20;;;23.40;41.50;;;;;;4977316;28;20266;-47
2021/09/01 10:50:19;;;;;;;4.68;3.60;;;23.50;42.50;;;;;;4984072;28;20231;-43
2021/09/01 10:52:46;;;;;;;3.90;3.53;;;23.50;42.50;;;;;;4980579;28;20208;-45
2021/09/01 10:55:12;;;;;;;4.30;3.55;;;23.50;42.30;;;;;;4972884;28;20200;-41
2021/09/01 10:57:39;;;;;;;3.92;3.53;;;23.50;42.10;;;;;;4965189;28;20205;-42
2021/09/01 11:00:05;;;;;;;3.97;3.60;;;23.50;41.90;;;;;;4971395;28;20223;-42
2021/09/01 11:02:31;;;;;;;7.00;3.42;;;23.50;41.40;;;;;;4976018;28;20295;-41
2021/09/01 11:04:58;;;;;;;3.50;2.97;;;23.50;40.80;;;;;;4972543;28;20291;-44
2021/09/01 11:07:25;;;;;;;7.22;3.85;;;23.40;40.60;;;;;;4973232;28;20205;-42
2021/09/01 11:09:52;;;;;;;3.92;3.53;;;23.40;39.90;;;;;;4969673;28;20237;-42
2021/09/01 11:12:18;;;;;;;3.30;3.00;;;23.40;40.40;;;;;;4972906;28;20310;-52
2021/09/01 11:14:48;;;;;;;4.80;3.30;;;23.40;39.40;;;;;;4972198;28;20203;-45
2021/09/01 11:17:14;;;;;;;3.85;3.25;;;23.40;39.30;;;;;;4954267;29;20205;-47
2021/09/01 11:19:40;;;;;;;3.58;3.28;;;23.40;39.60;;;;;;4959705;28;20204;-41
2021/09/01 11:22:07;;;;;;;3.88;3.42;;;23.40;39.50;;;;;;4972768;28;20204;-43
2021/09/01 11:24:33;;;;;;;5.10;3.63;;;23.40;39.30;;;;;;4972679;28;20573;-44
2021/09/01 11:27:00;;;;;;;4.68;4.18;;;23.40;39.40;;;;;;4972385;28;20375;-40
2021/09/01 11:29:26;;;;;;;4.03;3.30;;;23.40;39.70;;;;;;4966173;28;20205;-40
2021/09/01 11:31:53;;;;;;;4.25;3.70;;;23.40;39.20;;;;;;4970599;28;20216;-44
2021/09/01 11:34:19;;;;;;;5.45;3.78;;;23.50;39.80;;;;;;4970632;28;20287;-44
2021/09/01 11:36:46;;;;;;;8.13;5.68;;;23.40;39.70;;;;;;4971556;28;20218;-41
2021/09/01 11:39:12;;;;;;;7.50;6.65;;;23.50;39.60;;;;;;4968964;28;21097;-45
2021/09/01 11:41:39;;;;;;;10.13;9.00;;;23.50;39.10;;;;;;4970190;28;20635;-44
2021/09/01 11:44:05;;;;;;;13.77;12.07;;;23.40;38.40;;;;;;4962122;28;20291;-43
2021/09/01 11:46:34;;;;;;;19.58;16.98;;;23.50;38.60;;;;;;4971498;28;20283;-45
2021/09/01 11:49:01;;;;;;;19.40;17.40;;;23.40;38.80;;;;;;4968568;28;20300;-41
2021/09/01 11:51:27;;;;;;;17.25;15.38;;;23.40;38.90;;;;;;4969907;28;20760;-47
2021/09/01 11:53:53;;;;;;;13.25;11.88;;;23.40;38.80;;;;;;4971635;28;20573;-45
2021/09/01 11:56:20;;;;;;;13.25;10.35;;;23.40;38.60;;;;;;4969029;28;20284;-44
2021/09/01 11:58:46;;;;;;;11.23;8.88;;;23.40;38.10;;;;;;4972332;28;20220;-41
2021/09/01 12:01:13;;;;;;;8.60;7.75;;;23.40;37.60;;;;;;4969506;28;20232;-43
2021/09/01 12:03:39;;;;;;;8.85;8.05;;;23.40;37.70;;;;;;4965743;28;20291;-40
2021/09/01 12:06:06;;;;;;;6.70;6.00;;;23.30;37.50;;;;;;4972201;28;20588;-42
2021/09/01 12:08:32;;;;;;;6.72;5.43;;;23.40;37.60;;;;;;4969453;28;20203;-42
2021/09/01 12:10:59;;;;;;;9.38;7.00;;;23.40;37.60;;;;;;4970730;28;20239;-42
2021/09/01 12:13:25;;;;;;;6.43;5.38;;;23.40;37.70;;;;;;4969925;28;20201;-42
2021/09/01 12:15:52;;;;;;;5.43;4.60;;;23.40;37.60;;;;;;4972924;28;20672;-45
2021/09/01 12:18:18;;;;;;;5.35;4.53;;;23.40;37.30;;;;;;4986235;28;20214;-41
2021/09/01 12:20:45;;;;;;;6.82;4.97;;;23.30;36.80;;;;;;4968567;28;20216;-42
2021/09/01 12:23:11;;;;;;;5.93;4.55;;;23.30;36.60;;;;;;4970713;28;20292;-45
2021/09/01 12:25:38;;;;;;;3.90;3.50;;;23.30;36.40;;;;;;4969856;28;20287;-42
2021/09/01 12:28:06;;;;;;;6.50;4.13;;;23.30;36.50;;;;;;4977885;28;20287;-44
2021/09/01 12:30:32;;;;;;;4.28;3.85;;;23.30;36.10;;;;;;4970401;28;20278;-48
2021/09/01 12:32:59;;;;;;;4.70;3.75;;;23.30;35.90;;;;;;4968872;28;20695;-41
2021/09/01 12:35:25;;;;;;;4.28;3.55;;;23.20;35.80;;;;;;4975189;28;20255;-43
2021/09/01 12:37:52;;;;;;;4.88;3.85;;;23.30;35.70;;;;;;4970534;28;20201;-40
2021/09/01 12:40:18;;;;;;;4.10;3.67;;;23.20;35.70;;;;;;4967449;28;20235;-45